Terminal Aerodrome Forecast
Issued by NWS

Home | Current Version | Previous Version | Text Only | Print | Product List | Glossary On
Versions: 1 2 3 4 5 6 7 8 9 10 11 12 13 14 15 16 17
000
FTUS43 KEAX 261722
TAFSTJ
TAF
KSTJ 261722Z 2618/2718 14006KT P6SM FEW050 FEW120
     FM271200 15005KT P6SM VCTS SCT050CB SCT150
     FM271500 16007KT P6SM SCT150=

USA.gov is the U.S. government's official web portal to all federal, state and local government web resources and services.